Time;durP1;ratioP1;P1;durP2;ratioP2;P2;SDS_P1;SDS_P2;PMS_P1;PMS_P2;Temp;Humidity;BMP_temperature;BMP_pressure;BME280_temperature;BME280_humidity;BME280_pressure;Samples;Min_cycle;Max_cycle;Signal;HPM_P1;HPM_P2
2022/12/08 00:02:12;;;;;;;12.77;5.70;;;;;;;;;;12085788;19;20041;-63
2022/12/08 00:10:45;;;;;;;11.05;5.35;;;;;;;;;;12086216;19;20014;-63
2022/12/08 00:14:53;;;;;;;11.15;6.43;;;;;;;;;;12085760;19;20433;-63
2022/12/08 00:18:56;;;;;;;12.00;5.57;;;;;;;;;;12085081;19;20678;-64
2022/12/08 00:22:59;;;;;;;12.52;6.20;;;;;;;;;;12085038;19;20696;-63
2022/12/08 00:27:02;;;;;;;13.75;6.40;;;;;;;;;;12083555;19;21757;-64
2022/12/08 00:31:10;;;;;;;8.27;5.60;;;;;;;;;;12084626;19;20374;-64
2022/12/08 00:35:13;;;;;;;14.00;6.90;;;;;;;;;;12082717;19;20017;-63
2022/12/08 00:39:17;;;;;;;12.38;6.55;;;;;;;;;;12084505;19;20010;-64
2022/12/08 00:43:19;;;;;;;12.48;6.35;;;;;;;;;;12083825;19;20011;-64
2022/12/08 00:47:22;;;;;;;8.77;5.85;;;;;;;;;;12083502;19;20303;-64
2022/12/08 00:51:26;;;;;;;11.25;5.00;;;;;;;;;;12082573;19;20505;-64
2022/12/08 00:55:29;;;;;;;10.32;4.80;;;;;;;;;;12083823;19;20365;-65
2022/12/08 00:59:32;;;;;;;8.93;5.57;;;;;;;;;;12082990;19;20363;-64
2022/12/08 01:03:35;;;;;;;8.60;5.65;;;;;;;;;;12084906;19;20020;-64
2022/12/08 01:07:38;;;;;;;9.75;5.22;;;;;;;;;;12083164;19;20430;-63
2022/12/08 01:11:43;;;;;;;11.27;5.55;;;;;;;;;;12082966;19;20012;-64
2022/12/08 01:15:46;;;;;;;10.40;6.03;;;;;;;;;;12080491;19;20305;-63
2022/12/08 01:19:49;;;;;;;12.35;6.13;;;;;;;;;;12083135;19;20389;-65
2022/12/08 01:23:52;;;;;;;14.35;5.75;;;;;;;;;;12081609;19;20387;-64
2022/12/08 01:27:54;;;;;;;10.30;5.85;;;;;;;;;;12081523;19;20505;-64
2022/12/08 01:31:57;;;;;;;8.93;5.30;;;;;;;;;;12079424;19;20359;-63
2022/12/08 01:36:04;;;;;;;9.52;5.78;;;;;;;;;;12082999;19;20500;-64
2022/12/08 01:40:08;;;;;;;10.13;5.67;;;;;;;;;;12079368;19;21081;-64
2022/12/08 01:44:11;;;;;;;10.68;5.88;;;;;;;;;;12080915;19;20391;-64
2022/12/08 01:48:25;;;;;;;11.52;6.65;;;;;;;;;;12081226;19;20031;-64
2022/12/08 01:52:41;;;;;;;7.03;4.70;;;;;;;;;;12079768;19;20434;-63
2022/12/08 01:57:11;;;;;;;10.30;5.40;;;;;;;;;;12078665;19;20329;-65
2022/12/08 02:01:15;;;;;;;15.18;5.70;;;;;;;;;;12077127;19;21744;-65
2022/12/08 02:05:21;;;;;;;9.85;5.80;;;;;;;;;;12079706;19;20464;-65
2022/12/08 02:09:24;;;;;;;8.75;5.38;;;;;;;;;;12079111;19;20429;-64
2022/12/08 02:13:27;;;;;;;13.15;5.68;;;;;;;;;;12090017;19;20031;-63
2022/12/08 02:18:13;;;;;;;8.90;5.28;;;;;;;;;;12090087;19;20445;-63
2022/12/08 02:22:31;;;;;;;10.25;5.13;;;;;;;;;;12090383;19;21850;-65
2022/12/08 02:27:01;;;;;;;8.48;4.80;;;;;;;;;;12087539;19;20015;-64
2022/12/08 02:31:45;;;;;;;10.25;5.80;;;;;;;;;;12086543;19;21669;-63
2022/12/08 02:36:03;;;;;;;10.38;4.70;;;;;;;;;;12090239;19;20108;-64
2022/12/08 02:40:20;;;;;;;8.27;4.60;;;;;;;;;;12087521;19;21109;-63
2022/12/08 02:44:35;;;;;;;10.43;4.97;;;;;;;;;;12089749;19;20316;-63
2022/12/08 02:48:39;;;;;;;8.30;4.40;;;;;;;;;;12089767;19;20480;-63
2022/12/08 02:52:45;;;;;;;11.20;5.38;;;;;;;;;;12089868;19;20389;-63
2022/12/08 02:57:36;;;;;;;12.50;5.18;;;;;;;;;;12087688;19;20430;-63
2022/12/08 03:01:58;;;;;;;11.52;5.55;;;;;;;;;;12087322;19;21988;-63
2022/12/08 03:06:39;;;;;;;9.68;4.97;;;;;;;;;;12086996;19;22212;-64
2022/12/08 03:11:00;;;;;;;9.73;5.20;;;;;;;;;;12088863;19;20295;-63
2022/12/08 03:15:11;;;;;;;8.73;5.20;;;;;;;;;;12088700;19;20426;-63
2022/12/08 03:19:21;;;;;;;11.80;6.32;;;;;;;;;;12085779;19;21699;-64
2022/12/08 03:23:25;;;;;;;10.20;5.85;;;;;;;;;;12086494;19;20070;-64
2022/12/08 03:27:30;;;;;;;15.10;6.82;;;;;;;;;;12085173;19;20369;-64
2022/12/08 03:31:40;;;;;;;10.50;5.82;;;;;;;;;;12086024;19;20049;-63
2022/12/08 03:35:45;;;;;;;6.93;4.53;;;;;;;;;;12087613;19;20021;-64
2022/12/08 03:39:48;;;;;;;10.63;4.85;;;;;;;;;;12085746;19;20384;-63
2022/12/08 03:43:58;;;;;;;7.85;4.50;;;;;;;;;;12086801;19;20318;-64
2022/12/08 03:48:01;;;;;;;7.05;4.20;;;;;;;;;;12086605;19;20522;-63
2022/12/08 03:52:04;;;;;;;10.43;5.20;;;;;;;;;;12086405;19;20922;-64
2022/12/08 03:56:36;;;;;;;8.63;5.25;;;;;;;;;;12086343;19;20374;-64
2022/12/08 04:00:39;;;;;;;7.95;5.13;;;;;;;;;;12086370;19;20287;-65
2022/12/08 04:04:42;;;;;;;7.00;4.28;;;;;;;;;;12085680;19;20434;-63
2022/12/08 04:08:45;;;;;;;9.57;5.10;;;;;;;;;;12085976;19;20437;-63
2022/12/08 04:12:48;;;;;;;9.45;4.75;;;;;;;;;;12085393;19;20433;-63
2022/12/08 04:16:51;;;;;;;8.60;5.47;;;;;;;;;;12085168;19;20520;-63
2022/12/08 04:20:53;;;;;;;8.13;5.13;;;;;;;;;;12085077;19;20425;-63
2022/12/08 04:24:56;;;;;;;10.43;5.85;;;;;;;;;;12083624;19;20444;-63
2022/12/08 04:28:59;;;;;;;8.32;5.32;;;;;;;;;;12084726;19;20021;-63
2022/12/08 04:33:02;;;;;;;10.05;5.68;;;;;;;;;;12079419;19;20603;-67
2022/12/08 04:37:05;;;;;;;10.43;5.85;;;;;;;;;;12084536;19;20444;-65
2022/12/08 04:41:08;;;;;;;9.93;5.18;;;;;;;;;;12084858;19;20011;-63
2022/12/08 04:45:11;;;;;;;13.25;6.20;;;;;;;;;;12083481;19;20395;-63
2022/12/08 04:49:13;;;;;;;23.77;9.30;;;;;;;;;;12083788;19;20343;-63
2022/12/08 04:53:16;;;;;;;10.40;5.55;;;;;;;;;;12083832;19;20062;-63
2022/12/08 04:57:19;;;;;;;9.57;5.18;;;;;;;;;;12084071;19;20022;-65
2022/12/08 05:01:22;;;;;;;8.13;4.60;;;;;;;;;;12083390;19;20027;-63
2022/12/08 05:05:25;;;;;;;12.82;5.97;;;;;;;;;;12082476;19;20440;-63
2022/12/08 05:09:28;;;;;;;6.50;4.60;;;;;;;;;;12082256;19;20505;-64
2022/12/08 05:13:32;;;;;;;13.60;6.28;;;;;;;;;;12083683;19;20086;-63
2022/12/08 05:17:34;;;;;;;14.48;6.85;;;;;;;;;;12082345;19;20367;-63
2022/12/08 05:21:37;;;;;;;9.90;6.10;;;;;;;;;;12081521;19;20011;-63
2022/12/08 05:25:40;;;;;;;10.75;5.78;;;;;;;;;;12081098;19;20018;-63
2022/12/08 05:29:43;;;;;;;11.00;6.22;;;;;;;;;;12082116;19;20363;-64
2022/12/08 05:33:49;;;;;;;9.85;5.40;;;;;;;;;;12081730;19;20437;-65
2022/12/08 05:37:52;;;;;;;12.52;5.50;;;;;;;;;;12082184;19;20078;-63
2022/12/08 05:41:55;;;;;;;8.35;4.80;;;;;;;;;;12080858;19;20436;-63
2022/12/08 05:45:59;;;;;;;8.73;5.38;;;;;;;;;;12083588;19;20472;-64
2022/12/08 05:50:04;;;;;;;10.32;5.53;;;;;;;;;;12091535;19;21627;-66
2022/12/08 05:54:08;;;;;;;7.65;4.93;;;;;;;;;;12092774;19;20501;-63
2022/12/08 05:58:17;;;;;;;8.32;4.88;;;;;;;;;;12092527;19;20010;-64
2022/12/08 06:02:20;;;;;;;7.72;5.32;;;;;;;;;;12092753;19;20456;-64
2022/12/08 06:06:24;;;;;;;9.95;5.53;;;;;;;;;;12091445;19;20513;-63
2022/12/08 06:10:27;;;;;;;11.10;5.63;;;;;;;;;;12091661;19;20018;-62
2022/12/08 06:14:30;;;;;;;10.60;6.32;;;;;;;;;;12092113;19;20006;-63
2022/12/08 06:18:33;;;;;;;15.93;8.25;;;;;;;;;;12092119;19;20338;-64
2022/12/08 06:22:37;;;;;;;15.25;8.23;;;;;;;;;;12093393;19;20460;-63
2022/12/08 06:26:40;;;;;;;16.63;7.72;;;;;;;;;;12090367;19;20313;-67
2022/12/08 06:30:43;;;;;;;17.55;7.60;;;;;;;;;;12091602;19;20440;-63
2022/12/08 06:34:46;;;;;;;18.35;8.75;;;;;;;;;;12090490;19;20346;-65
2022/12/08 06:38:49;;;;;;;25.85;10.20;;;;;;;;;;12090115;19;20302;-64
2022/12/08 06:42:52;;;;;;;34.22;12.18;;;;;;;;;;12090733;19;20472;-63
2022/12/08 06:46:55;;;;;;;31.77;12.60;;;;;;;;;;12090479;19;20433;-64
2022/12/08 06:51:10;;;;;;;29.00;11.45;;;;;;;;;;12089830;19;20021;-62
2022/12/08 06:55:13;;;;;;;21.73;10.10;;;;;;;;;;12085333;19;23445;-63
2022/12/08 06:59:37;;;;;;;17.73;9.15;;;;;;;;;;12088747;19;20469;-64
2022/12/08 07:03:42;;;;;;;22.33;8.75;;;;;;;;;;12086301;19;20298;-63
2022/12/08 07:07:45;;;;;;;20.13;8.98;;;;;;;;;;12088667;19;20464;-63
2022/12/08 07:11:48;;;;;;;16.50;9.35;;;;;;;;;;12088334;19;20294;-62
2022/12/08 07:15:51;;;;;;;14.20;7.50;;;;;;;;;;12089586;19;20436;-63
2022/12/08 07:19:57;;;;;;;22.00;8.18;;;;;;;;;;12088249;19;20366;-63
2022/12/08 07:24:00;;;;;;;36.55;13.05;;;;;;;;;;12086460;19;20015;-63
2022/12/08 07:28:08;;;;;;;41.88;14.20;;;;;;;;;;12084667;19;21138;-63
2022/12/08 07:32:11;;;;;;;52.10;18.02;;;;;;;;;;12087793;19;20492;-63
2022/12/08 07:36:14;;;;;;;53.88;17.17;;;;;;;;;;12087511;19;20448;-63
2022/12/08 07:40:17;;;;;;;56.58;17.00;;;;;;;;;;12087469;19;20279;-63
2022/12/08 07:44:20;;;;;;;53.78;16.58;;;;;;;;;;12087380;19;20452;-64
2022/12/08 07:48:25;;;;;;;39.53;14.82;;;;;;;;;;12088389;19;20010;-62
2022/12/08 07:52:28;;;;;;;41.28;14.82;;;;;;;;;;12083849;19;20436;-64
2022/12/08 07:56:31;;;;;;;39.38;13.60;;;;;;;;;;12085550;19;20426;-63
2022/12/08 08:00:35;;;;;;;36.22;13.15;;;;;;;;;;11971030;19;20488;-64
2022/12/08 08:04:38;;;;;;;20.92;9.70;;;;;;;;;;11979591;19;20041;-63
2022/12/08 08:08:41;;;;;;;10.07;5.82;;;;;;;;;;12082693;19;20301;-64
2022/12/08 08:12:44;;;;;;;10.20;4.90;;;;;;;;;;12085684;19;20429;-63
2022/12/08 08:16:47;;;;;;;10.48;5.90;;;;;;;;;;12085242;19;20330;-63
2022/12/08 08:20:50;;;;;;;7.93;4.70;;;;;;;;;;12085450;19;20341;-63
2022/12/08 08:24:53;;;;;;;8.88;5.68;;;;;;;;;;12084219;19;20017;-63
2022/12/08 08:28:56;;;;;;;11.73;6.30;;;;;;;;;;12081434;19;20457;-63
2022/12/08 08:32:59;;;;;;;12.60;6.28;;;;;;;;;;12083385;19;20496;-63
2022/12/08 08:37:02;;;;;;;8.77;5.25;;;;;;;;;;12082280;19;20299;-65
2022/12/08 08:41:08;;;;;;;12.25;5.57;;;;;;;;;;12083880;19;20010;-64
2022/12/08 08:45:11;;;;;;;11.02;5.55;;;;;;;;;;12084351;19;20497;-64
2022/12/08 08:49:14;;;;;;;8.93;4.90;;;;;;;;;;12081225;19;20329;-63
2022/12/08 08:53:17;;;;;;;10.25;5.13;;;;;;;;;;12083549;19;20506;-63
2022/12/08 08:57:20;;;;;;;11.07;4.75;;;;;;;;;;12082815;19;20448;-65
2022/12/08 09:01:28;;;;;;;7.10;4.43;;;;;;;;;;12083651;19;20314;-65
2022/12/08 09:05:31;;;;;;;8.75;4.03;;;;;;;;;;12082487;19;20460;-64
2022/12/08 09:09:34;;;;;;;12.20;5.22;;;;;;;;;;12083186;19;20314;-63
2022/12/08 09:13:38;;;;;;;30.38;12.90;;;;;;;;;;12083701;19;20365;-64
2022/12/08 09:17:41;;;;;;;32.00;14.93;;;;;;;;;;12083012;19;20477;-63
2022/12/08 09:21:43;;;;;;;25.88;12.57;;;;;;;;;;12085083;19;20461;-63
2022/12/08 09:25:46;;;;;;;18.42;9.30;;;;;;;;;;12080774;19;20299;-64
2022/12/08 09:29:49;;;;;;;18.60;9.98;;;;;;;;;;12082431;19;20011;-63
2022/12/08 09:33:52;;;;;;;17.05;10.10;;;;;;;;;;12082027;19;20615;-65
2022/12/08 09:37:55;;;;;;;11.98;6.97;;;;;;;;;;12082964;19;20616;-63
2022/12/08 09:42:02;;;;;;;14.55;7.80;;;;;;;;;;12080112;19;20307;-64
2022/12/08 09:46:12;;;;;;;14.98;7.35;;;;;;;;;;12079362;19;21742;-64
2022/12/08 09:50:48;;;;;;;11.93;6.32;;;;;;;;;;12079536;19;20302;-63
2022/12/08 09:54:51;;;;;;;13.80;7.22;;;;;;;;;;11971962;19;20011;-63
2022/12/08 09:59:10;;;;;;;10.88;6.65;;;;;;;;;;12080205;19;20452;-65
2022/12/08 10:03:14;;;;;;;13.75;7.85;;;;;;;;;;12079507;19;21119;-64
2022/12/08 10:07:47;;;;;;;12.38;7.45;;;;;;;;;;12079952;19;20303;-64
2022/12/08 10:12:27;;;;;;;21.52;9.45;;;;;;;;;;12078480;19;20297;-65
2022/12/08 10:16:39;;;;;;;12.52;7.60;;;;;;;;;;12024322;19;22027;-65
2022/12/08 10:20:46;;;;;;;9.38;5.15;;;;;;;;;;12077822;19;20493;-65
2022/12/08 10:25:24;;;;;;;12.53;5.67;;;;;;;;;;12078852;19;20437;-64
2022/12/08 10:29:27;;;;;;;12.02;5.57;;;;;;;;;;12075473;19;21264;-65
2022/12/08 10:33:32;;;;;;;16.83;6.13;;;;;;;;;;12085442;19;20433;-65
2022/12/08 10:37:35;;;;;;;13.75;6.38;;;;;;;;;;12089139;19;20305;-64
2022/12/08 10:41:39;;;;;;;11.88;6.78;;;;;;;;;;12088539;19;20521;-65
2022/12/08 10:45:42;;;;;;;14.98;8.85;;;;;;;;;;12090535;19;20418;-64
2022/12/08 10:49:45;;;;;;;13.90;7.00;;;;;;;;;;12088111;19;20385;-64
2022/12/08 10:53:48;;;;;;;13.50;6.97;;;;;;;;;;12035503;19;20024;-65
2022/12/08 10:57:51;;;;;;;32.08;14.25;;;;;;;;;;12087954;19;20007;-64
2022/12/08 11:01:56;;;;;;;36.10;16.52;;;;;;;;;;12089026;19;20430;-64
2022/12/08 11:06:08;;;;;;;10.60;5.38;;;;;;;;;;12086809;19;20042;-64
2022/12/08 11:10:32;;;;;;;10.60;5.63;;;;;;;;;;12086257;19;21111;-64
2022/12/08 11:14:41;;;;;;;8.80;4.63;;;;;;;;;;12087082;19;20398;-65
2022/12/08 11:18:54;;;;;;;8.73;4.95;;;;;;;;;;12089932;19;20405;-65
2022/12/08 11:22:57;;;;;;;9.90;4.60;;;;;;;;;;12088174;19;20366;-64
2022/12/08 11:27:05;;;;;;;8.65;4.63;;;;;;;;;;12086382;19;20307;-64
2022/12/08 11:31:30;;;;;;;9.98;4.75;;;;;;;;;;12085314;19;21091;-64
2022/12/08 11:35:40;;;;;;;11.20;6.13;;;;;;;;;;12087373;19;20421;-64
2022/12/08 11:39:49;;;;;;;8.68;4.93;;;;;;;;;;12087250;19;20441;-64
2022/12/08 11:44:04;;;;;;;11.48;6.10;;;;;;;;;;12088380;19;20020;-64
2022/12/08 11:48:40;;;;;;;10.43;5.18;;;;;;;;;;12085187;19;21210;-63
2022/12/08 11:52:48;;;;;;;10.05;5.75;;;;;;;;;;12084895;19;20460;-65
2022/12/08 11:57:00;;;;;;;12.50;4.95;;;;;;;;;;12086185;19;20563;-64
2022/12/08 12:01:03;;;;;;;11.38;4.72;;;;;;;;;;12086546;19;20021;-65
2022/12/08 12:05:34;;;;;;;8.95;5.63;;;;;;;;;;11956585;19;20451;-64
2022/12/08 12:10:35;;;;;;;8.43;4.85;;;;;;;;;;12083667;19;20441;-63
2022/12/08 12:15:12;;;;;;;7.95;4.10;;;;;;;;;;12084607;19;21760;-64
2022/12/08 12:19:18;;;;;;;11.65;5.07;;;;;;;;;;12083687;19;21698;-65
2022/12/08 12:23:55;;;;;;;9.07;3.67;;;;;;;;;;12084497;19;20429;-65
2022/12/08 12:28:07;;;;;;;8.82;4.95;;;;;;;;;;12084145;19;20504;-64
2022/12/08 12:32:11;;;;;;;9.57;4.82;;;;;;;;;;12082851;19;20844;-63
2022/12/08 12:36:14;;;;;;;14.23;6.15;;;;;;;;;;12083493;19;20469;-64
2022/12/08 12:40:22;;;;;;;7.47;4.68;;;;;;;;;;12083354;19;20587;-65
2022/12/08 12:44:28;;;;;;;15.83;8.17;;;;;;;;;;12081384;19;20018;-64
2022/12/08 12:48:31;;;;;;;11.00;6.03;;;;;;;;;;12083545;19;20243;-64
2022/12/08 12:52:37;;;;;;;8.63;5.65;;;;;;;;;;12083164;19;20739;-64
2022/12/08 12:57:03;;;;;;;6.65;3.65;;;;;;;;;;12081554;19;20436;-64
2022/12/08 13:01:11;;;;;;;12.60;6.03;;;;;;;;;;12080247;19;21654;-63
2022/12/08 13:05:34;;;;;;;7.78;4.00;;;;;;;;;;12082023;19;20392;-64
2022/12/08 13:09:38;;;;;;;11.48;6.18;;;;;;;;;;12081171;19;20760;-63
2022/12/08 13:14:02;;;;;;;17.15;7.38;;;;;;;;;;12025762;19;20011;-64
2022/12/08 13:18:25;;;;;;;7.88;4.13;;;;;;;;;;12078758;19;20855;-64
2022/12/08 13:23:02;;;;;;;60.95;32.45;;;;;;;;;;12082183;19;20386;-63
2022/12/08 13:27:05;;;;;;;27.65;20.00;;;;;;;;;;12079010;19;20436;-63
2022/12/08 13:32:10;;;;;;;16.13;11.43;;;;;;;;;;12081838;19;20429;-63
2022/12/08 13:36:36;;;;;;;16.65;10.30;;;;;;;;;;12081102;19;20990;-64
2022/12/08 13:40:42;;;;;;;15.00;9.23;;;;;;;;;;12080003;19;20074;-64
2022/12/08 13:45:09;;;;;;;10.07;6.57;;;;;;;;;;12081494;19;20023;-64
2022/12/08 13:49:41;;;;;;;13.25;6.43;;;;;;;;;;12079608;19;21863;-64
2022/12/08 13:54:11;;;;;;;10.10;5.80;;;;;;;;;;12078064;19;22406;-65
2022/12/08 13:58:36;;;;;;;12.32;7.07;;;;;;;;;;12081697;19;20438;-63
2022/12/08 14:02:45;;;;;;;41.22;16.95;;;;;;;;;;12080383;19;20106;-64
2022/12/08 14:06:58;;;;;;;29.48;16.45;;;;;;;;;;12081003;19;20528;-63
2022/12/08 14:11:04;;;;;;;34.20;16.30;;;;;;;;;;12090475;19;20383;-63
2022/12/08 14:15:13;;;;;;;15.77;8.25;;;;;;;;;;12091500;19;21044;-64
2022/12/08 14:19:23;;;;;;;84.13;32.00;;;;;;;;;;12089714;19;20380;-64
2022/12/08 14:23:26;;;;;;;18.25;9.65;;;;;;;;;;12058062;19;20465;-65
2022/12/08 14:27:35;;;;;;;14.68;9.23;;;;;;;;;;12089282;19;20379;-64
2022/12/08 14:31:39;;;;;;;18.85;11.00;;;;;;;;;;12091042;19;20430;-63
2022/12/08 14:35:48;;;;;;;42.22;26.40;;;;;;;;;;12090233;19;20555;-63
2022/12/08 14:39:51;;;;;;;22.33;9.48;;;;;;;;;;12090299;19;20394;-64
2022/12/08 14:44:00;;;;;;;8.38;3.80;;;;;;;;;;12088745;19;20469;-64
2022/12/08 14:48:25;;;;;;;6.43;3.22;;;;;;;;;;12087411;19;21050;-65
2022/12/08 14:52:29;;;;;;;8.13;4.50;;;;;;;;;;12089265;19;20433;-65
2022/12/08 14:56:49;;;;;;;6.95;4.80;;;;;;;;;;12087943;19;20478;-63
2022/12/08 15:00:57;;;;;;;6.00;3.05;;;;;;;;;;12088145;19;20452;-64
2022/12/08 15:05:13;;;;;;;;;;;;;;;;;;12089269;19;20707;-64
2022/12/08 15:09:34;;;;;;;11.55;6.88;;;;;;;;;;12087232;19;22298;-64
2022/12/08 15:13:45;;;;;;;6.03;3.67;;;;;;;;;;12089402;19;20360;-64
2022/12/08 15:18:01;;;;;;;5.88;3.80;;;;;;;;;;12089302;19;20517;-63
2022/12/08 15:22:21;;;;;;;7.05;3.55;;;;;;;;;;12085302;19;21722;-65
2022/12/08 15:26:26;;;;;;;7.80;4.15;;;;;;;;;;12084972;19;20350;-65
2022/12/08 15:30:30;;;;;;;19.35;8.77;;;;;;;;;;12086977;19;20459;-66
2022/12/08 15:34:32;;;;;;;21.20;9.40;;;;;;;;;;12087828;19;20421;-66
2022/12/08 15:38:36;;;;;;;8.68;4.90;;;;;;;;;;12087213;19;20373;-64
2022/12/08 15:42:40;;;;;;;12.75;4.80;;;;;;;;;;12088037;19;20021;-64
2022/12/08 15:46:43;;;;;;;8.23;4.32;;;;;;;;;;12087485;19;20315;-64
2022/12/08 15:50:47;;;;;;;7.90;3.95;;;;;;;;;;12086787;19;20358;-64
2022/12/08 15:54:50;;;;;;;8.98;5.32;;;;;;;;;;12086682;19;20018;-64
2022/12/08 15:58:53;;;;;;;11.63;4.43;;;;;;;;;;12086234;19;20367;-64
2022/12/08 16:03:00;;;;;;;9.02;5.00;;;;;;;;;;12029399;19;20437;-64
2022/12/08 16:07:28;;;;;;;25.85;10.82;;;;;;;;;;12084707;19;20498;-64
2022/12/08 16:16:18;;;;;;;43.63;13.55;;;;;;;;;;12082217;19;21216;-65
2022/12/08 16:20:21;;;;;;;30.15;10.15;;;;;;;;;;12083470;19;20429;-63
2022/12/08 16:24:39;;;;;;;367.90;88.30;;;;;;;;;;12085109;19;20046;-65
2022/12/08 16:28:42;;;;;;;198.43;47.25;;;;;;;;;;12086248;19;20011;-65
2022/12/08 16:32:56;;;;;;;321.15;72.60;;;;;;;;;;12083889;19;20524;-63
2022/12/08 16:36:58;;;;;;;195.32;52.90;;;;;;;;;;12084590;19;20534;-63
2022/12/08 16:45:27;;;;;;;193.85;55.72;;;;;;;;;;12085556;19;20061;-63
2022/12/08 16:49:30;;;;;;;238.10;69.07;;;;;;;;;;12080486;19;20322;-63
2022/12/08 16:53:33;;;;;;;172.35;51.10;;;;;;;;;;12084003;19;20391;-64
2022/12/08 16:57:37;;;;;;;163.25;48.40;;;;;;;;;;12083601;19;20355;-65
2022/12/08 17:01:39;;;;;;;334.17;82.13;;;;;;;;;;12083724;19;20010;-64
2022/12/08 17:05:43;;;;;;;245.60;71.60;;;;;;;;;;12082872;19;20291;-64
2022/12/08 17:09:46;;;;;;;47.33;19.85;;;;;;;;;;12083173;19;20521;-64
2022/12/08 17:13:48;;;;;;;21.98;11.35;;;;;;;;;;12083418;19;20496;-63
2022/12/08 17:17:52;;;;;;;21.55;11.90;;;;;;;;;;12082195;19;20356;-65
2022/12/08 17:21:55;;;;;;;62.65;26.23;;;;;;;;;;12082737;19;20491;-64
2022/12/08 17:26:01;;;;;;;40.90;18.17;;;;;;;;;;12081303;19;20011;-65
2022/12/08 17:30:07;;;;;;;42.05;18.23;;;;;;;;;;12080110;19;21905;-64
2022/12/08 17:34:11;;;;;;;28.40;12.50;;;;;;;;;;12080850;19;20294;-66
2022/12/08 17:38:16;;;;;;;18.23;9.73;;;;;;;;;;12079717;19;20359;-65
2022/12/08 17:42:19;;;;;;;25.85;13.60;;;;;;;;;;12085954;19;20323;-65
2022/12/08 17:46:23;;;;;;;19.63;10.52;;;;;;;;;;12072119;19;20584;-64
2022/12/08 17:50:26;;;;;;;28.90;13.95;;;;;;;;;;12090614;19;20386;-64
2022/12/08 17:54:30;;;;;;;19.80;9.60;;;;;;;;;;12092949;19;20313;-64
2022/12/08 17:58:33;;;;;;;21.98;11.98;;;;;;;;;;12092884;19;20018;-66
2022/12/08 18:02:36;;;;;;;23.23;12.98;;;;;;;;;;11977338;19;20433;-65
2022/12/08 18:06:39;;;;;;;33.45;16.80;;;;;;;;;;12091752;19;20493;-65
2022/12/08 18:10:42;;;;;;;47.75;23.90;;;;;;;;;;12091623;19;20464;-63
2022/12/08 18:14:45;;;;;;;55.50;23.60;;;;;;;;;;12091859;19;20456;-65
2022/12/08 18:18:49;;;;;;;48.22;19.63;;;;;;;;;;12091877;19;20484;-64
2022/12/08 18:22:52;;;;;;;28.88;17.67;;;;;;;;;;12090907;19;20329;-64
2022/12/08 18:26:56;;;;;;;27.77;16.65;;;;;;;;;;12068009;19;20323;-64
2022/12/08 18:30:59;;;;;;;28.25;14.02;;;;;;;;;;12090574;19;20319;-64
2022/12/08 18:35:03;;;;;;;25.92;14.95;;;;;;;;;;12089976;19;21089;-64
2022/12/08 18:39:05;;;;;;;44.25;20.58;;;;;;;;;;12089309;19;21960;-64
2022/12/08 18:43:12;;;;;;;62.50;24.25;;;;;;;;;;12089939;19;20429;-63
2022/12/08 18:47:16;;;;;;;63.38;22.63;;;;;;;;;;12089503;19;20465;-64
2022/12/08 18:51:22;;;;;;;63.42;25.50;;;;;;;;;;12089066;19;20429;-64
2022/12/08 18:55:25;;;;;;;34.97;18.23;;;;;;;;;;12086577;19;20516;-63
2022/12/08 18:59:28;;;;;;;30.48;14.50;;;;;;;;;;12088232;19;20335;-66
2022/12/08 19:03:31;;;;;;;273.73;68.80;;;;;;;;;;12089065;19;20460;-64
2022/12/08 19:07:35;;;;;;;136.13;55.63;;;;;;;;;;12068577;19;20445;-64
2022/12/08 19:11:38;;;;;;;162.20;47.72;;;;;;;;;;12088212;19;20319;-64
2022/12/08 19:15:41;;;;;;;147.10;40.70;;;;;;;;;;11981975;19;20437;-64
2022/12/08 19:19:44;;;;;;;25.55;13.02;;;;;;;;;;12090927;19;20425;-65
2022/12/08 19:23:47;;;;;;;29.50;14.23;;;;;;;;;;12087203;19;20430;-64
2022/12/08 19:27:49;;;;;;;53.25;20.92;;;;;;;;;;12086934;19;20514;-64
2022/12/08 19:31:55;;;;;;;53.83;21.55;;;;;;;;;;12033414;19;20465;-64
2022/12/08 19:35:58;;;;;;;45.40;17.30;;;;;;;;;;12087570;19;20330;-64
2022/12/08 19:58:16;;;;;;;339.60;87.93;;;;;;;;;;30287223;19;20348;-65
2022/12/08 20:08:18;;;;;;;111.53;36.40;;;;;;;;;;30349762;19;20449;-64
2022/12/08 20:18:20;;;;;;;105.72;30.80;;;;;;;;;;30350075;19;20314;-65
2022/12/08 20:28:23;;;;;;;65.60;25.45;;;;;;;;;;30346801;19;20006;-65
2022/12/08 20:38:26;;;;;;;54.67;24.50;;;;;;;;;;30346265;19;20377;-65
2022/12/08 20:48:28;;;;;;;57.60;23.95;;;;;;;;;;30344575;19;20015;-64
2022/12/08 20:58:30;;;;;;;68.88;24.67;;;;;;;;;;30344804;19;20066;-65
2022/12/08 21:08:32;;;;;;;55.97;24.10;;;;;;;;;;30235982;19;20466;-65
2022/12/08 21:18:35;;;;;;;54.22;23.27;;;;;;;;;;30227025;19;20372;-64
2022/12/08 21:28:41;;;;;;;47.67;19.87;;;;;;;;;;30169089;19;20082;-65
2022/12/08 21:38:46;;;;;;;28.45;13.10;;;;;;;;;;29989506;19;20015;-64
2022/12/08 21:48:48;;;;;;;23.08;12.63;;;;;;;;;;30220291;19;20375;-64
2022/12/08 21:58:50;;;;;;;28.30;14.73;;;;;;;;;;30221087;19;20502;-65
2022/12/08 22:08:56;;;;;;;36.17;16.73;;;;;;;;;;30219008;19;20324;-64
2022/12/08 22:18:59;;;;;;;27.33;14.10;;;;;;;;;;30215745;19;20297;-64
2022/12/08 22:29:01;;;;;;;32.40;14.15;;;;;;;;;;30216263;19;20425;-64
2022/12/08 22:39:03;;;;;;;39.20;17.98;;;;;;;;;;30214213;19;20295;-66
2022/12/08 22:49:23;;;;;;;31.40;15.45;;;;;;;;;;30212163;19;20448;-65
2022/12/08 22:59:28;;;;;;;29.08;13.70;;;;;;;;;;30189039;19;20489;-66
2022/12/08 23:09:30;;;;;;;34.13;17.90;;;;;;;;;;30209045;19;20437;-64
2022/12/08 23:19:35;;;;;;;29.02;14.00;;;;;;;;;;30208892;19;20327;-65
2022/12/08 23:29:37;;;;;;;25.63;14.30;;;;;;;;;;30208817;19;20074;-64
2022/12/08 23:39:40;;;;;;;27.17;13.52;;;;;;;;;;30206244;19;20017;-65
2022/12/08 23:49:43;;;;;;;35.58;16.90;;;;;;;;;;30205059;19;20380;-64
2022/12/08 23:59:45;;;;;;;35.50;17.75;;;;;;;;;;30204567;19;20382;-64
